Terminal Aerodrome Forecast
Issued by NWS Cleveland, OH

Home | Current Version | Previous Version | Graphics & Text | Print | Product List | Glossary On
Versions: 1 2 3 4 5 6 7 8 9 10 11 12 13
000
FTUS41 KCLE 101100
TAFCAK
TAF
KCAK 101133Z 1012/1112 VRB03KT P6SM SCT100
      TEMPO 1012/1013 3SM BR
     FM101500 02006KT P6SM SCT040
     FM102300 VRB03KT P6SM SKC=

USA.gov is the U.S. government's official web portal to all federal, state and local government web resources and services.